sensor_id;sensor_type;location;lat;lon;timestamp;P1;durP1;ratioP1;P2;durP2;ratioP2
21010;SDS011;10663;42.714;23.274;2023-03-23T00:00:54;45.65;;;34.13;;
21010;SDS011;10663;42.714;23.274;2023-03-23T00:02:25;42.75;;;31.88;;
21010;SDS011;10663;42.714;23.274;2023-03-23T00:03:57;41.47;;;30.80;;
21010;SDS011;10663;42.714;23.274;2023-03-23T00:05:30;38.17;;;27.90;;
21010;SDS011;10663;42.714;23.274;2023-03-23T00:07:01;36.03;;;26.20;;
21010;SDS011;10663;42.714;23.274;2023-03-23T00:08:34;32.10;;;24.55;;
21010;SDS011;10663;42.714;23.274;2023-03-23T00:10:15;31.70;;;23.83;;
21010;SDS011;10663;42.714;23.274;2023-03-23T00:11:47;31.15;;;23.83;;
21010;SDS011;10663;42.714;23.274;2023-03-23T00:13:18;30.38;;;22.40;;
21010;SDS011;10663;42.714;23.274;2023-03-23T00:14:50;31.05;;;23.27;;
21010;SDS011;10663;42.714;23.274;2023-03-23T00:16:25;29.10;;;22.98;;
21010;SDS011;10663;42.714;23.274;2023-03-23T00:18:02;30.00;;;22.50;;
21010;SDS011;10663;42.714;23.274;2023-03-23T00:19:35;29.85;;;22.42;;
21010;SDS011;10663;42.714;23.274;2023-03-23T00:21:16;31.60;;;23.08;;
21010;SDS011;10663;42.714;23.274;2023-03-23T00:22:47;31.65;;;22.77;;
21010;SDS011;10663;42.714;23.274;2023-03-23T00:24:18;29.30;;;22.17;;
21010;SDS011;10663;42.714;23.274;2023-03-23T00:25:52;29.65;;;23.10;;
21010;SDS011;10663;42.714;23.274;2023-03-23T00:27:26;30.50;;;22.33;;
21010;SDS011;10663;42.714;23.274;2023-03-23T00:28:57;29.90;;;23.05;;
21010;SDS011;10663;42.714;23.274;2023-03-23T00:30:30;31.02;;;23.15;;
21010;SDS011;10663;42.714;23.274;2023-03-23T00:32:04;31.42;;;23.08;;
21010;SDS011;10663;42.714;23.274;2023-03-23T00:33:37;33.63;;;24.48;;
21010;SDS011;10663;42.714;23.274;2023-03-23T00:35:08;33.65;;;25.13;;
21010;SDS011;10663;42.714;23.274;2023-03-23T00:36:40;31.60;;;23.65;;
21010;SDS011;10663;42.714;23.274;2023-03-23T00:38:13;31.70;;;24.05;;
21010;SDS011;10663;42.714;23.274;2023-03-23T00:39:45;35.15;;;26.48;;
21010;SDS011;10663;42.714;23.274;2023-03-23T00:41:16;36.97;;;26.33;;
21010;SDS011;10663;42.714;23.274;2023-03-23T00:42:47;34.00;;;26.42;;
21010;SDS011;10663;42.714;23.274;2023-03-23T00:44:18;34.90;;;26.15;;
21010;SDS011;10663;42.714;23.274;2023-03-23T00:45:54;36.20;;;25.30;;
21010;SDS011;10663;42.714;23.274;2023-03-23T00:47:26;32.63;;;25.58;;
21010;SDS011;10663;42.714;23.274;2023-03-23T00:48:57;32.58;;;23.88;;
21010;SDS011;10663;42.714;23.274;2023-03-23T00:50:28;29.05;;;21.30;;
21010;SDS011;10663;42.714;23.274;2023-03-23T00:51:59;30.17;;;22.55;;
21010;SDS011;10663;42.714;23.274;2023-03-23T00:53:30;34.17;;;24.38;;
21010;SDS011;10663;42.714;23.274;2023-03-23T00:55:01;30.33;;;22.30;;
21010;SDS011;10663;42.714;23.274;2023-03-23T00:56:32;27.95;;;21.10;;
21010;SDS011;10663;42.714;23.274;2023-03-23T00:58:03;27.95;;;19.52;;
21010;SDS011;10663;42.714;23.274;2023-03-23T00:59:34;25.83;;;19.80;;
21010;SDS011;10663;42.714;23.274;2023-03-23T01:01:06;27.00;;;21.23;;
21010;SDS011;10663;42.714;23.274;2023-03-23T01:02:37;29.52;;;21.33;;
21010;SDS011;10663;42.714;23.274;2023-03-23T01:04:11;29.63;;;22.10;;
21010;SDS011;10663;42.714;23.274;2023-03-23T01:05:42;25.80;;;20.35;;
21010;SDS011;10663;42.714;23.274;2023-03-23T01:07:13;30.13;;;21.67;;
21010;SDS011;10663;42.714;23.274;2023-03-23T01:08:44;28.45;;;20.77;;
21010;SDS011;10663;42.714;23.274;2023-03-23T01:10:19;32.80;;;23.60;;
21010;SDS011;10663;42.714;23.274;2023-03-23T01:11:50;34.55;;;25.00;;
21010;SDS011;10663;42.714;23.274;2023-03-23T01:13:21;31.47;;;23.37;;
21010;SDS011;10663;42.714;23.274;2023-03-23T01:14:53;33.10;;;24.75;;
21010;SDS011;10663;42.714;23.274;2023-03-23T01:16:24;36.05;;;26.40;;
21010;SDS011;10663;42.714;23.274;2023-03-23T01:17:55;38.17;;;28.65;;
21010;SDS011;10663;42.714;23.274;2023-03-23T01:19:26;41.40;;;28.57;;
21010;SDS011;10663;42.714;23.274;2023-03-23T01:21:03;40.03;;;29.58;;
21010;SDS011;10663;42.714;23.274;2023-03-23T01:22:35;39.70;;;27.52;;
21010;SDS011;10663;42.714;23.274;2023-03-23T01:24:07;38.93;;;27.93;;
21010;SDS011;10663;42.714;23.274;2023-03-23T01:25:38;42.50;;;30.55;;
21010;SDS011;10663;42.714;23.274;2023-03-23T01:27:09;39.85;;;28.90;;
21010;SDS011;10663;42.714;23.274;2023-03-23T01:28:40;39.95;;;29.40;;
21010;SDS011;10663;42.714;23.274;2023-03-23T01:30:11;41.38;;;30.75;;
21010;SDS011;10663;42.714;23.274;2023-03-23T01:31:43;46.13;;;32.92;;
21010;SDS011;10663;42.714;23.274;2023-03-23T01:33:15;49.47;;;35.22;;
21010;SDS011;10663;42.714;23.274;2023-03-23T01:34:47;51.25;;;35.00;;
21010;SDS011;10663;42.714;23.274;2023-03-23T01:36:20;47.97;;;34.90;;
21010;SDS011;10663;42.714;23.274;2023-03-23T01:37:57;51.55;;;35.00;;
21010;SDS011;10663;42.714;23.274;2023-03-23T01:39:28;48.95;;;35.17;;
21010;SDS011;10663;42.714;23.274;2023-03-23T01:40:59;50.70;;;34.80;;
21010;SDS011;10663;42.714;23.274;2023-03-23T01:42:32;46.75;;;34.45;;
21010;SDS011;10663;42.714;23.274;2023-03-23T01:45:51;54.17;;;38.15;;
21010;SDS011;10663;42.714;23.274;2023-03-23T01:47:22;52.20;;;37.13;;
21010;SDS011;10663;42.714;23.274;2023-03-23T01:48:56;52.17;;;37.23;;
21010;SDS011;10663;42.714;23.274;2023-03-23T01:50:33;48.25;;;35.15;;
21010;SDS011;10663;42.714;23.274;2023-03-23T01:52:10;47.53;;;34.50;;
21010;SDS011;10663;42.714;23.274;2023-03-23T01:53:51;46.38;;;34.45;;
21010;SDS011;10663;42.714;23.274;2023-03-23T01:55:28;48.58;;;35.00;;
21010;SDS011;10663;42.714;23.274;2023-03-23T01:57:02;47.10;;;32.85;;
21010;SDS011;10663;42.714;23.274;2023-03-23T01:58:41;44.45;;;32.92;;
21010;SDS011;10663;42.714;23.274;2023-03-23T02:00:13;53.22;;;35.80;;
21010;SDS011;10663;42.714;23.274;2023-03-23T02:01:50;50.97;;;35.30;;
21010;SDS011;10663;42.714;23.274;2023-03-23T02:03:24;55.28;;;37.97;;
21010;SDS011;10663;42.714;23.274;2023-03-23T02:04:56;52.33;;;35.72;;
21010;SDS011;10663;42.714;23.274;2023-03-23T02:06:35;51.65;;;37.42;;
21010;SDS011;10663;42.714;23.274;2023-03-23T02:08:16;54.65;;;36.97;;
21010;SDS011;10663;42.714;23.274;2023-03-23T02:09:50;48.83;;;35.45;;
21010;SDS011;10663;42.714;23.274;2023-03-23T02:11:22;53.97;;;38.13;;
21010;SDS011;10663;42.714;23.274;2023-03-23T02:12:53;53.05;;;36.83;;
21010;SDS011;10663;42.714;23.274;2023-03-23T02:14:25;51.15;;;36.10;;
21010;SDS011;10663;42.714;23.274;2023-03-23T02:16:04;55.30;;;38.73;;
21010;SDS011;10663;42.714;23.274;2023-03-23T02:17:53;50.53;;;37.03;;
21010;SDS011;10663;42.714;23.274;2023-03-23T02:19:46;52.03;;;37.77;;
21010;SDS011;10663;42.714;23.274;2023-03-23T02:21:31;54.97;;;38.28;;
21010;SDS011;10663;42.714;23.274;2023-03-23T02:25:10;52.38;;;36.10;;
21010;SDS011;10663;42.714;23.274;2023-03-23T02:26:59;58.13;;;38.92;;
21010;SDS011;10663;42.714;23.274;2023-03-23T02:29:16;50.95;;;35.00;;
21010;SDS011;10663;42.714;23.274;2023-03-23T02:35:10;52.28;;;35.38;;
21010;SDS011;10663;42.714;23.274;2023-03-23T02:39:24;53.35;;;36.70;;
21010;SDS011;10663;42.714;23.274;2023-03-23T02:40:48;54.75;;;37.17;;
21010;SDS011;10663;42.714;23.274;2023-03-23T02:42:26;52.85;;;36.85;;
21010;SDS011;10663;42.714;23.274;2023-03-23T02:44:02;54.80;;;37.97;;
21010;SDS011;10663;42.714;23.274;2023-03-23T02:45:35;51.58;;;37.03;;
21010;SDS011;10663;42.714;23.274;2023-03-23T02:47:11;52.22;;;36.53;;
21010;SDS011;10663;42.714;23.274;2023-03-23T02:48:47;47.47;;;34.35;;
21010;SDS011;10663;42.714;23.274;2023-03-23T02:50:22;48.67;;;32.67;;
21010;SDS011;10663;42.714;23.274;2023-03-23T02:51:56;46.80;;;33.53;;
21010;SDS011;10663;42.714;23.274;2023-03-23T02:53:30;46.75;;;33.17;;
21010;SDS011;10663;42.714;23.274;2023-03-23T02:55:05;48.50;;;34.78;;
21010;SDS011;10663;42.714;23.274;2023-03-23T02:56:38;45.88;;;32.03;;
21010;SDS011;10663;42.714;23.274;2023-03-23T02:58:18;47.92;;;33.70;;
21010;SDS011;10663;42.714;23.274;2023-03-23T02:59:49;50.88;;;34.42;;
21010;SDS011;10663;42.714;23.274;2023-03-23T03:02:59;58.55;;;38.65;;
21010;SDS011;10663;42.714;23.274;2023-03-23T03:04:35;50.25;;;35.58;;
21010;SDS011;10663;42.714;23.274;2023-03-23T03:10:04;46.47;;;33.20;;
21010;SDS011;10663;42.714;23.274;2023-03-23T03:11:45;44.65;;;31.73;;
21010;SDS011;10663;42.714;23.274;2023-03-23T03:13:25;47.80;;;34.33;;
21010;SDS011;10663;42.714;23.274;2023-03-23T03:15:24;44.45;;;31.00;;
21010;SDS011;10663;42.714;23.274;2023-03-23T03:20:50;37.45;;;27.50;;
21010;SDS011;10663;42.714;23.274;2023-03-23T03:22:27;38.83;;;28.95;;
21010;SDS011;10663;42.714;23.274;2023-03-23T03:24:00;39.35;;;28.00;;
21010;SDS011;10663;42.714;23.274;2023-03-23T03:25:33;30.95;;;22.17;;
21010;SDS011;10663;42.714;23.274;2023-03-23T03:27:10;34.33;;;24.70;;
21010;SDS011;10663;42.714;23.274;2023-03-23T03:28:50;36.42;;;25.23;;
21010;SDS011;10663;42.714;23.274;2023-03-23T03:30:25;24.70;;;19.77;;
21010;SDS011;10663;42.714;23.274;2023-03-23T03:32:02;32.35;;;24.15;;
21010;SDS011;10663;42.714;23.274;2023-03-23T03:33:37;29.98;;;22.77;;
21010;SDS011;10663;42.714;23.274;2023-03-23T03:35:08;33.90;;;24.75;;
21010;SDS011;10663;42.714;23.274;2023-03-23T03:36:40;31.85;;;22.60;;
21010;SDS011;10663;42.714;23.274;2023-03-23T03:38:13;34.33;;;23.80;;
21010;SDS011;10663;42.714;23.274;2023-03-23T03:39:46;33.42;;;24.65;;
21010;SDS011;10663;42.714;23.274;2023-03-23T03:41:18;33.00;;;24.25;;
21010;SDS011;10663;42.714;23.274;2023-03-23T03:42:50;32.22;;;24.85;;
21010;SDS011;10663;42.714;23.274;2023-03-23T03:44:21;35.65;;;25.00;;
21010;SDS011;10663;42.714;23.274;2023-03-23T03:45:52;32.17;;;24.08;;
21010;SDS011;10663;42.714;23.274;2023-03-23T03:47:24;33.95;;;25.17;;
21010;SDS011;10663;42.714;23.274;2023-03-23T03:48:57;36.72;;;25.83;;
21010;SDS011;10663;42.714;23.274;2023-03-23T03:50:28;36.33;;;27.20;;
21010;SDS011;10663;42.714;23.274;2023-03-23T03:52:00;35.78;;;27.77;;
21010;SDS011;10663;42.714;23.274;2023-03-23T03:53:41;42.05;;;30.50;;
21010;SDS011;10663;42.714;23.274;2023-03-23T03:55:12;38.55;;;28.90;;
21010;SDS011;10663;42.714;23.274;2023-03-23T03:56:46;35.10;;;26.88;;
21010;SDS011;10663;42.714;23.274;2023-03-23T03:58:44;34.58;;;26.17;;
21010;SDS011;10663;42.714;23.274;2023-03-23T04:00:24;37.50;;;26.53;;
21010;SDS011;10663;42.714;23.274;2023-03-23T04:01:55;34.63;;;25.77;;
21010;SDS011;10663;42.714;23.274;2023-03-23T04:03:27;34.83;;;25.85;;
21010;SDS011;10663;42.714;23.274;2023-03-23T04:05:10;35.53;;;26.42;;
21010;SDS011;10663;42.714;23.274;2023-03-23T04:06:42;38.70;;;28.38;;
21010;SDS011;10663;42.714;23.274;2023-03-23T04:08:13;36.13;;;26.92;;
21010;SDS011;10663;42.714;23.274;2023-03-23T04:09:44;36.22;;;28.17;;
21010;SDS011;10663;42.714;23.274;2023-03-23T04:11:19;37.30;;;27.45;;
21010;SDS011;10663;42.714;23.274;2023-03-23T04:12:50;37.20;;;28.05;;
21010;SDS011;10663;42.714;23.274;2023-03-23T04:14:39;38.63;;;28.45;;
21010;SDS011;10663;42.714;23.274;2023-03-23T04:16:10;37.55;;;27.70;;
21010;SDS011;10663;42.714;23.274;2023-03-23T04:17:42;37.67;;;27.23;;
21010;SDS011;10663;42.714;23.274;2023-03-23T04:19:13;42.88;;;28.98;;
21010;SDS011;10663;42.714;23.274;2023-03-23T04:20:45;38.88;;;30.27;;
21010;SDS011;10663;42.714;23.274;2023-03-23T04:22:20;43.42;;;32.00;;
21010;SDS011;10663;42.714;23.274;2023-03-23T04:23:55;41.38;;;30.65;;
21010;SDS011;10663;42.714;23.274;2023-03-23T04:25:31;40.03;;;28.23;;
21010;SDS011;10663;42.714;23.274;2023-03-23T04:27:04;40.17;;;29.67;;
21010;SDS011;10663;42.714;23.274;2023-03-23T04:28:35;41.88;;;28.88;;
21010;SDS011;10663;42.714;23.274;2023-03-23T04:30:33;41.40;;;29.58;;
21010;SDS011;10663;42.714;23.274;2023-03-23T04:32:13;40.42;;;29.48;;
21010;SDS011;10663;42.714;23.274;2023-03-23T04:33:51;40.33;;;29.27;;
21010;SDS011;10663;42.714;23.274;2023-03-23T04:35:24;38.47;;;28.42;;
21010;SDS011;10663;42.714;23.274;2023-03-23T04:37:07;38.47;;;28.58;;
21010;SDS011;10663;42.714;23.274;2023-03-23T04:38:39;40.67;;;28.92;;
21010;SDS011;10663;42.714;23.274;2023-03-23T04:40:17;38.38;;;28.60;;
21010;SDS011;10663;42.714;23.274;2023-03-23T04:41:58;42.13;;;31.88;;
21010;SDS011;10663;42.714;23.274;2023-03-23T04:44:00;41.92;;;29.95;;
21010;SDS011;10663;42.714;23.274;2023-03-23T04:45:42;41.85;;;32.22;;
21010;SDS011;10663;42.714;23.274;2023-03-23T04:47:16;42.22;;;31.23;;
21010;SDS011;10663;42.714;23.274;2023-03-23T04:48:55;44.35;;;31.70;;
21010;SDS011;10663;42.714;23.274;2023-03-23T04:50:33;45.35;;;32.38;;
21010;SDS011;10663;42.714;23.274;2023-03-23T04:52:13;45.08;;;32.75;;
21010;SDS011;10663;42.714;23.274;2023-03-23T04:53:59;51.72;;;37.05;;
21010;SDS011;10663;42.714;23.274;2023-03-23T04:55:32;51.75;;;36.83;;
21010;SDS011;10663;42.714;23.274;2023-03-23T04:57:12;46.08;;;33.33;;
21010;SDS011;10663;42.714;23.274;2023-03-23T04:58:49;43.80;;;32.72;;
21010;SDS011;10663;42.714;23.274;2023-03-23T05:00:36;46.83;;;32.40;;
21010;SDS011;10663;42.714;23.274;2023-03-23T05:02:11;60.08;;;42.85;;
21010;SDS011;10663;42.714;23.274;2023-03-23T05:03:44;65.10;;;46.53;;
21010;SDS011;10663;42.714;23.274;2023-03-23T05:05:15;57.47;;;39.05;;
21010;SDS011;10663;42.714;23.274;2023-03-23T05:06:47;49.53;;;34.65;;
21010;SDS011;10663;42.714;23.274;2023-03-23T05:08:25;45.40;;;33.67;;
21010;SDS011;10663;42.714;23.274;2023-03-23T05:09:57;48.85;;;33.88;;
21010;SDS011;10663;42.714;23.274;2023-03-23T05:11:31;53.85;;;37.90;;
21010;SDS011;10663;42.714;23.274;2023-03-23T05:13:03;50.70;;;36.50;;
21010;SDS011;10663;42.714;23.274;2023-03-23T05:14:34;56.38;;;41.63;;
21010;SDS011;10663;42.714;23.274;2023-03-23T05:16:11;47.92;;;33.58;;
21010;SDS011;10663;42.714;23.274;2023-03-23T05:17:44;48.10;;;33.90;;
21010;SDS011;10663;42.714;23.274;2023-03-23T05:19:20;50.30;;;34.95;;
21010;SDS011;10663;42.714;23.274;2023-03-23T05:20:52;48.80;;;36.53;;
21010;SDS011;10663;42.714;23.274;2023-03-23T05:22:26;57.47;;;39.85;;
21010;SDS011;10663;42.714;23.274;2023-03-23T05:23:58;61.55;;;43.95;;
21010;SDS011;10663;42.714;23.274;2023-03-23T05:25:31;63.75;;;45.80;;
21010;SDS011;10663;42.714;23.274;2023-03-23T05:27:11;64.57;;;44.50;;
21010;SDS011;10663;42.714;23.274;2023-03-23T05:28:46;51.97;;;37.35;;
21010;SDS011;10663;42.714;23.274;2023-03-23T05:30:23;55.58;;;37.08;;
21010;SDS011;10663;42.714;23.274;2023-03-23T05:31:54;54.40;;;37.90;;
21010;SDS011;10663;42.714;23.274;2023-03-23T05:33:26;52.88;;;37.53;;
21010;SDS011;10663;42.714;23.274;2023-03-23T05:35:17;50.47;;;36.85;;
21010;SDS011;10663;42.714;23.274;2023-03-23T05:36:50;53.58;;;39.45;;
21010;SDS011;10663;42.714;23.274;2023-03-23T05:38:55;49.25;;;38.00;;
21010;SDS011;10663;42.714;23.274;2023-03-23T05:40:28;51.15;;;37.25;;
21010;SDS011;10663;42.714;23.274;2023-03-23T05:42:05;53.17;;;37.25;;
21010;SDS011;10663;42.714;23.274;2023-03-23T05:43:48;51.92;;;35.97;;
21010;SDS011;10663;42.714;23.274;2023-03-23T05:45:29;51.22;;;36.13;;
21010;SDS011;10663;42.714;23.274;2023-03-23T05:47:00;52.13;;;37.65;;
21010;SDS011;10663;42.714;23.274;2023-03-23T05:48:32;49.15;;;36.90;;
21010;SDS011;10663;42.714;23.274;2023-03-23T05:50:04;60.58;;;39.10;;
21010;SDS011;10663;42.714;23.274;2023-03-23T05:51:37;60.20;;;39.60;;
21010;SDS011;10663;42.714;23.274;2023-03-23T05:53:08;55.53;;;38.65;;
21010;SDS011;10663;42.714;23.274;2023-03-23T05:54:42;56.45;;;40.42;;
21010;SDS011;10663;42.714;23.274;2023-03-23T05:56:13;51.90;;;37.45;;
21010;SDS011;10663;42.714;23.274;2023-03-23T05:58:07;51.72;;;37.20;;
21010;SDS011;10663;42.714;23.274;2023-03-23T05:59:43;50.28;;;37.13;;
21010;SDS011;10663;42.714;23.274;2023-03-23T06:01:20;47.75;;;34.88;;
21010;SDS011;10663;42.714;23.274;2023-03-23T06:02:54;45.85;;;34.00;;
21010;SDS011;10663;42.714;23.274;2023-03-23T06:04:32;44.20;;;33.00;;
21010;SDS011;10663;42.714;23.274;2023-03-23T06:06:16;46.80;;;33.50;;
21010;SDS011;10663;42.714;23.274;2023-03-23T06:07:56;46.17;;;32.35;;
21010;SDS011;10663;42.714;23.274;2023-03-23T06:09:27;46.33;;;32.80;;
21010;SDS011;10663;42.714;23.274;2023-03-23T06:11:37;48.95;;;33.22;;
21010;SDS011;10663;42.714;23.274;2023-03-23T06:13:40;44.53;;;31.85;;
21010;SDS011;10663;42.714;23.274;2023-03-23T06:15:14;42.85;;;32.17;;
21010;SDS011;10663;42.714;23.274;2023-03-23T06:17:08;44.57;;;31.47;;
21010;SDS011;10663;42.714;23.274;2023-03-23T06:18:39;43.33;;;32.60;;
21010;SDS011;10663;42.714;23.274;2023-03-23T06:20:37;46.83;;;33.25;;
21010;SDS011;10663;42.714;23.274;2023-03-23T06:22:20;47.35;;;33.03;;
21010;SDS011;10663;42.714;23.274;2023-03-23T06:24:11;44.88;;;32.53;;
21010;SDS011;10663;42.714;23.274;2023-03-23T06:25:42;45.10;;;32.60;;
21010;SDS011;10663;42.714;23.274;2023-03-23T06:27:14;46.00;;;33.22;;
21010;SDS011;10663;42.714;23.274;2023-03-23T06:28:47;50.28;;;35.58;;
21010;SDS011;10663;42.714;23.274;2023-03-23T06:30:19;52.70;;;37.60;;
21010;SDS011;10663;42.714;23.274;2023-03-23T06:31:52;51.10;;;36.65;;
21010;SDS011;10663;42.714;23.274;2023-03-23T06:33:26;52.40;;;37.13;;
21010;SDS011;10663;42.714;23.274;2023-03-23T06:35:24;53.10;;;36.72;;
21010;SDS011;10663;42.714;23.274;2023-03-23T06:37:11;47.75;;;35.00;;
21010;SDS011;10663;42.714;23.274;2023-03-23T06:39:21;47.40;;;33.95;;
21010;SDS011;10663;42.714;23.274;2023-03-23T06:41:11;48.55;;;34.90;;
21010;SDS011;10663;42.714;23.274;2023-03-23T06:42:42;47.15;;;34.63;;
21010;SDS011;10663;42.714;23.274;2023-03-23T06:44:33;45.15;;;33.22;;
21010;SDS011;10663;42.714;23.274;2023-03-23T06:46:04;48.83;;;33.83;;
21010;SDS011;10663;42.714;23.274;2023-03-23T06:47:36;44.78;;;32.33;;
21010;SDS011;10663;42.714;23.274;2023-03-23T06:49:07;48.40;;;34.13;;
21010;SDS011;10663;42.714;23.274;2023-03-23T06:50:47;44.88;;;32.17;;
21010;SDS011;10663;42.714;23.274;2023-03-23T06:52:20;47.03;;;32.83;;
21010;SDS011;10663;42.714;23.274;2023-03-23T06:53:53;41.97;;;31.27;;
21010;SDS011;10663;42.714;23.274;2023-03-23T06:55:25;43.80;;;31.90;;
21010;SDS011;10663;42.714;23.274;2023-03-23T06:56:58;43.83;;;31.73;;
21010;SDS011;10663;42.714;23.274;2023-03-23T06:58:28;45.65;;;32.00;;
21010;SDS011;10663;42.714;23.274;2023-03-23T07:00:00;44.28;;;31.45;;
21010;SDS011;10663;42.714;23.274;2023-03-23T07:01:31;44.92;;;32.67;;
21010;SDS011;10663;42.714;23.274;2023-03-23T07:03:04;46.13;;;32.85;;
21010;SDS011;10663;42.714;23.274;2023-03-23T07:04:37;45.10;;;31.60;;
21010;SDS011;10663;42.714;23.274;2023-03-23T07:06:16;46.43;;;32.23;;
21010;SDS011;10663;42.714;23.274;2023-03-23T07:07:53;41.73;;;31.13;;
21010;SDS011;10663;42.714;23.274;2023-03-23T07:09:35;41.53;;;30.88;;
21010;SDS011;10663;42.714;23.274;2023-03-23T07:11:06;45.53;;;33.03;;
21010;SDS011;10663;42.714;23.274;2023-03-23T07:12:39;40.75;;;30.73;;
21010;SDS011;10663;42.714;23.274;2023-03-23T07:14:13;46.15;;;32.72;;
21010;SDS011;10663;42.714;23.274;2023-03-23T07:15:45;43.13;;;30.58;;
21010;SDS011;10663;42.714;23.274;2023-03-23T07:17:16;39.72;;;30.20;;
21010;SDS011;10663;42.714;23.274;2023-03-23T07:19:11;43.42;;;32.58;;
21010;SDS011;10663;42.714;23.274;2023-03-23T07:20:41;45.05;;;30.75;;
21010;SDS011;10663;42.714;23.274;2023-03-23T07:22:13;41.85;;;32.20;;
21010;SDS011;10663;42.714;23.274;2023-03-23T07:23:46;42.25;;;31.05;;
21010;SDS011;10663;42.714;23.274;2023-03-23T07:25:23;41.22;;;29.45;;
21010;SDS011;10663;42.714;23.274;2023-03-23T07:26:58;41.25;;;30.38;;
21010;SDS011;10663;42.714;23.274;2023-03-23T07:28:30;37.40;;;28.45;;
21010;SDS011;10663;42.714;23.274;2023-03-23T07:30:07;41.38;;;30.42;;
21010;SDS011;10663;42.714;23.274;2023-03-23T07:31:39;44.93;;;33.90;;
21010;SDS011;10663;42.714;23.274;2023-03-23T07:33:12;39.70;;;29.58;;
21010;SDS011;10663;42.714;23.274;2023-03-23T07:34:44;38.17;;;28.85;;
21010;SDS011;10663;42.714;23.274;2023-03-23T07:36:35;39.05;;;28.67;;
21010;SDS011;10663;42.714;23.274;2023-03-23T07:38:09;41.05;;;28.52;;
21010;SDS011;10663;42.714;23.274;2023-03-23T07:39:41;39.90;;;28.67;;
21010;SDS011;10663;42.714;23.274;2023-03-23T07:41:14;39.30;;;28.15;;
21010;SDS011;10663;42.714;23.274;2023-03-23T07:42:51;39.17;;;29.20;;
21010;SDS011;10663;42.714;23.274;2023-03-23T07:44:32;38.67;;;28.45;;
21010;SDS011;10663;42.714;23.274;2023-03-23T07:46:10;39.85;;;29.45;;
21010;SDS011;10663;42.714;23.274;2023-03-23T07:48:02;38.33;;;28.98;;
21010;SDS011;10663;42.714;23.274;2023-03-23T07:49:34;41.28;;;30.13;;
21010;SDS011;10663;42.714;23.274;2023-03-23T07:51:35;48.78;;;36.22;;
21010;SDS011;10663;42.714;23.274;2023-03-23T07:53:09;44.10;;;33.63;;
21010;SDS011;10663;42.714;23.274;2023-03-23T07:54:41;47.83;;;34.88;;
21010;SDS011;10663;42.714;23.274;2023-03-23T07:56:33;45.20;;;33.97;;
21010;SDS011;10663;42.714;23.274;2023-03-23T07:58:21;47.78;;;34.83;;
21010;SDS011;10663;42.714;23.274;2023-03-23T07:59:58;52.35;;;37.25;;
21010;SDS011;10663;42.714;23.274;2023-03-23T08:01:30;48.33;;;35.97;;
21010;SDS011;10663;42.714;23.274;2023-03-23T08:03:22;47.22;;;33.55;;
21010;SDS011;10663;42.714;23.274;2023-03-23T08:05:12;44.85;;;33.25;;
21010;SDS011;10663;42.714;23.274;2023-03-23T08:07:10;41.55;;;30.83;;
21010;SDS011;10663;42.714;23.274;2023-03-23T08:09:06;47.22;;;31.92;;
21010;SDS011;10663;42.714;23.274;2023-03-23T08:11:04;42.30;;;30.95;;
21010;SDS011;10663;42.714;23.274;2023-03-23T08:12:54;41.95;;;31.65;;
21010;SDS011;10663;42.714;23.274;2023-03-23T08:14:45;43.88;;;29.98;;
21010;SDS011;10663;42.714;23.274;2023-03-23T08:16:38;39.97;;;29.73;;
21010;SDS011;10663;42.714;23.274;2023-03-23T08:18:25;39.55;;;29.38;;
21010;SDS011;10663;42.714;23.274;2023-03-23T08:20:10;38.80;;;29.33;;
21010;SDS011;10663;42.714;23.274;2023-03-23T08:22:15;37.08;;;26.75;;
21010;SDS011;10663;42.714;23.274;2023-03-23T08:24:05;33.60;;;25.43;;
21010;SDS011;10663;42.714;23.274;2023-03-23T08:25:56;36.67;;;26.25;;
21010;SDS011;10663;42.714;23.274;2023-03-23T08:27:32;32.00;;;23.83;;
21010;SDS011;10663;42.714;23.274;2023-03-23T08:29:22;34.78;;;25.73;;
21010;SDS011;10663;42.714;23.274;2023-03-23T08:31:15;36.10;;;25.95;;
21010;SDS011;10663;42.714;23.274;2023-03-23T08:33:10;32.53;;;23.38;;
21010;SDS011;10663;42.714;23.274;2023-03-23T08:34:54;34.03;;;22.52;;
21010;SDS011;10663;42.714;23.274;2023-03-23T08:36:53;31.45;;;23.10;;
21010;SDS011;10663;42.714;23.274;2023-03-23T08:38:43;29.02;;;21.95;;
21010;SDS011;10663;42.714;23.274;2023-03-23T08:40:47;31.65;;;23.85;;
21010;SDS011;10663;42.714;23.274;2023-03-23T08:42:37;31.63;;;22.90;;
21010;SDS011;10663;42.714;23.274;2023-03-23T08:44:09;31.25;;;22.70;;
21010;SDS011;10663;42.714;23.274;2023-03-23T08:45:57;29.83;;;22.52;;
21010;SDS011;10663;42.714;23.274;2023-03-23T08:48:07;30.48;;;22.70;;
21010;SDS011;10663;42.714;23.274;2023-03-23T08:49:58;28.02;;;19.42;;
21010;SDS011;10663;42.714;23.274;2023-03-23T08:51:48;22.17;;;17.50;;
21010;SDS011;10663;42.714;23.274;2023-03-23T08:53:37;20.15;;;15.30;;
21010;SDS011;10663;42.714;23.274;2023-03-23T08:55:31;17.65;;;13.48;;
21010;SDS011;10663;42.714;23.274;2023-03-23T08:57:27;15.68;;;12.23;;
21010;SDS011;10663;42.714;23.274;2023-03-23T08:59:09;16.52;;;12.00;;
21010;SDS011;10663;42.714;23.274;2023-03-23T09:01:04;16.75;;;12.23;;
21010;SDS011;10663;42.714;23.274;2023-03-23T09:02:49;11.75;;;9.95;;
21010;SDS011;10663;42.714;23.274;2023-03-23T09:04:26;16.30;;;12.00;;
21010;SDS011;10663;42.714;23.274;2023-03-23T09:06:16;15.50;;;11.00;;
21010;SDS011;10663;42.714;23.274;2023-03-23T09:07:50;12.30;;;10.10;;
21010;SDS011;10663;42.714;23.274;2023-03-23T09:09:23;15.77;;;10.48;;
21010;SDS011;10663;42.714;23.274;2023-03-23T09:10:55;12.35;;;9.60;;
21010;SDS011;10663;42.714;23.274;2023-03-23T09:12:29;14.65;;;10.95;;
21010;SDS011;10663;42.714;23.274;2023-03-23T09:14:00;15.88;;;10.95;;
21010;SDS011;10663;42.714;23.274;2023-03-23T09:15:32;14.55;;;11.88;;
21010;SDS011;10663;42.714;23.274;2023-03-23T09:17:03;13.60;;;11.05;;
21010;SDS011;10663;42.714;23.274;2023-03-23T09:18:34;16.35;;;12.73;;
21010;SDS011;10663;42.714;23.274;2023-03-23T09:20:07;18.48;;;12.63;;
21010;SDS011;10663;42.714;23.274;2023-03-23T09:21:42;15.35;;;11.40;;
21010;SDS011;10663;42.714;23.274;2023-03-23T09:23:13;15.43;;;12.10;;
21010;SDS011;10663;42.714;23.274;2023-03-23T09:24:44;15.57;;;11.32;;
21010;SDS011;10663;42.714;23.274;2023-03-23T09:26:15;14.10;;;11.02;;
21010;SDS011;10663;42.714;23.274;2023-03-23T09:27:48;13.63;;;10.65;;
21010;SDS011;10663;42.714;23.274;2023-03-23T09:29:24;12.82;;;10.50;;
21010;SDS011;10663;42.714;23.274;2023-03-23T09:30:55;15.63;;;9.77;;
21010;SDS011;10663;42.714;23.274;2023-03-23T09:32:27;12.05;;;9.73;;
21010;SDS011;10663;42.714;23.274;2023-03-23T09:33:58;12.25;;;9.43;;
21010;SDS011;10663;42.714;23.274;2023-03-23T09:35:30;14.98;;;11.68;;
21010;SDS011;10663;42.714;23.274;2023-03-23T09:37:04;11.90;;;9.13;;
21010;SDS011;10663;42.714;23.274;2023-03-23T09:38:35;11.98;;;9.50;;
21010;SDS011;10663;42.714;23.274;2023-03-23T09:40:09;12.60;;;9.57;;
21010;SDS011;10663;42.714;23.274;2023-03-23T09:43:29;13.45;;;10.65;;